Time;durP1;ratioP1;P1;durP2;ratioP2;P2;SDS_P1;SDS_P2;PMS_P1;PMS_P2;Temp;Humidity;BMP_temperature;BMP_pressure;BME280_temperature;BME280_humidity;BME280_pressure;Samples;Min_cycle;Max_cycle;Signal;HPM_P1;HPM_P2
2023/02/18 00:00:17;;;;;;;27.07;18.37;;;11.50;99.90;;;;;;5090120;28;20041;-59
2023/02/18 00:02:43;;;;;;;19.87;13.07;;;11.50;99.90;;;;;;5090121;28;20085;-59
2023/02/18 00:05:09;;;;;;;20.27;13.53;;;11.40;99.90;;;;;;5090531;28;20096;-59
2023/02/18 00:07:37;;;;;;;20.20;14.67;;;11.40;99.90;;;;;;5093480;28;20031;-58
2023/02/18 00:10:04;;;;;;;19.80;14.10;;;11.30;99.90;;;;;;5093860;28;20032;-59
2023/02/18 00:12:31;;;;;;;23.53;15.00;;;11.30;99.90;;;;;;5093920;28;20028;-58
2023/02/18 00:14:57;;;;;;;22.13;14.37;;;11.30;99.90;;;;;;5093696;28;20048;-58
2023/02/18 00:17:22;;;;;;;20.20;14.03;;;11.30;99.90;;;;;;5093555;28;20032;-58
2023/02/18 00:19:48;;;;;;;21.80;14.47;;;11.30;99.90;;;;;;5093618;28;20035;-58
2023/02/18 00:22:14;;;;;;;21.73;14.93;;;11.30;99.90;;;;;;5093646;28;20126;-58
2023/02/18 00:24:40;;;;;;;24.77;15.00;;;11.30;99.90;;;;;;5093445;28;20032;-58
2023/02/18 00:27:05;;;;;;;22.67;14.73;;;11.40;99.90;;;;;;5093246;28;20036;-58
2023/02/18 00:29:31;;;;;;;22.37;15.10;;;11.30;99.90;;;;;;5093538;28;20032;-58
2023/02/18 00:31:57;;;;;;;23.60;14.97;;;11.30;99.90;;;;;;5092113;28;20040;-58
2023/02/18 00:34:23;;;;;;;20.93;14.97;;;11.30;99.90;;;;;;5093180;28;20534;-58
2023/02/18 00:36:49;;;;;;;22.93;14.90;;;11.30;99.90;;;;;;5091884;28;20071;-58
2023/02/18 00:39:14;;;;;;;24.90;15.07;;;11.40;99.90;;;;;;5091948;28;20111;-58
2023/02/18 00:41:41;;;;;;;21.53;14.83;;;11.40;99.90;;;;;;5091744;28;20487;-58
2023/02/18 00:44:07;;;;;;;20.93;14.77;;;11.40;99.90;;;;;;5093150;28;20028;-59
2023/02/18 00:46:33;;;;;;;25.13;15.67;;;11.30;99.90;;;;;;5093042;28;20036;-58
2023/02/18 00:48:59;;;;;;;25.93;16.00;;;11.40;99.90;;;;;;5093015;28;20036;-58
2023/02/18 00:51:26;;;;;;;22.93;15.07;;;11.40;99.90;;;;;;5093138;28;20089;-58
2023/02/18 00:53:52;;;;;;;22.03;15.17;;;11.40;99.90;;;;;;5092914;28;20036;-58
2023/02/18 00:56:18;;;;;;;22.57;15.10;;;11.40;99.90;;;;;;5093016;28;20028;-59
2023/02/18 00:58:44;;;;;;;27.17;15.50;;;11.40;99.90;;;;;;5092911;28;20568;-58
2023/02/18 01:01:10;;;;;;;24.57;16.47;;;11.30;99.90;;;;;;5093035;28;20036;-58
2023/02/18 01:03:37;;;;;;;23.10;15.30;;;11.30;99.90;;;;;;5091373;28;20111;-59
2023/02/18 01:06:04;;;;;;;26.23;15.97;;;11.30;99.90;;;;;;5093036;28;20028;-59
2023/02/18 01:08:32;;;;;;;25.02;16.50;;;11.30;99.90;;;;;;5092705;28;20444;-59
2023/02/18 01:10:59;;;;;;;26.70;15.93;;;11.30;99.90;;;;;;5092649;28;20525;-59
2023/02/18 01:13:25;;;;;;;24.37;16.17;;;11.30;99.90;;;;;;5091176;28;20498;-58
2023/02/18 01:15:51;;;;;;;25.40;15.80;;;11.20;99.90;;;;;;5092423;28;20388;-58
2023/02/18 01:18:18;;;;;;;27.43;15.97;;;11.30;99.90;;;;;;5090968;28;20083;-58
2023/02/18 01:20:44;;;;;;;23.67;15.27;;;11.30;99.90;;;;;;5092635;28;20070;-59
2023/02/18 01:23:11;;;;;;;24.00;15.07;;;11.30;99.90;;;;;;5092480;28;20048;-59
2023/02/18 01:25:38;;;;;;;27.00;15.67;;;11.30;99.90;;;;;;5092234;28;20362;-59
2023/02/18 01:28:05;;;;;;;23.37;15.57;;;11.30;99.90;;;;;;5092268;28;20036;-59
2023/02/18 01:30:31;;;;;;;24.93;14.77;;;11.30;99.90;;;;;;5092246;28;20434;-58
2023/02/18 01:32:57;;;;;;;24.50;14.80;;;11.30;99.90;;;;;;5091044;28;20122;-59
2023/02/18 01:35:23;;;;;;;26.57;15.03;;;11.20;99.90;;;;;;5090653;28;20400;-59
2023/02/18 01:37:49;;;;;;;26.07;14.07;;;11.20;99.90;;;;;;5091924;28;20036;-58
2023/02/18 01:40:19;;;;;;;21.50;13.93;;;11.20;99.90;;;;;;5090770;28;20032;-58
2023/02/18 01:42:48;;;;;;;22.10;13.85;;;11.20;99.90;;;;;;5090770;28;20028;-58
2023/02/18 01:45:32;;;;;;;21.52;13.00;;;11.20;99.90;;;;;;5090543;28;20063;-58
2023/02/18 01:48:04;;;;;;;20.13;12.87;;;11.20;99.90;;;;;;5090369;28;20040;-58
2023/02/18 01:50:34;;;;;;;20.37;13.70;;;11.20;99.90;;;;;;5091917;28;20511;-58
2023/02/18 01:53:01;;;;;;;22.77;13.53;;;11.20;99.90;;;;;;5091950;28;20416;-58
2023/02/18 01:55:30;;;;;;;18.63;12.88;;;11.20;99.90;;;;;;5090309;28;20120;-59
2023/02/18 01:57:56;;;;;;;20.83;12.53;;;11.20;99.90;;;;;;5090283;28;20036;-58
2023/02/18 02:00:22;;;;;;;18.43;11.87;;;11.20;99.90;;;;;;5090390;28;20039;-58
2023/02/18 02:02:50;;;;;;;17.77;11.30;;;11.20;99.90;;;;;;5091784;28;20059;-59
2023/02/18 02:05:17;;;;;;;15.57;10.57;;;11.20;99.90;;;;;;5091511;28;20115;-59
2023/02/18 02:07:46;;;;;;;18.27;10.30;;;11.30;99.90;;;;;;5091136;28;20063;-58
2023/02/18 02:10:13;;;;;;;15.30;10.63;;;11.30;99.90;;;;;;5091521;28;20484;-59
2023/02/18 02:12:45;;;;;;;15.77;10.60;;;11.30;99.90;;;;;;5091626;28;20016;-58
2023/02/18 02:15:29;;;;;;;15.77;10.50;;;11.20;99.90;;;;;;5090083;28;20024;-58
2023/02/18 02:18:35;;;;;;;15.63;10.50;;;11.20;99.90;;;;;;5089901;28;20024;-58
2023/02/18 02:21:31;;;;;;;16.77;10.40;;;11.20;99.90;;;;;;5068491;28;20085;-58
2023/02/18 02:24:25;;;;;;;13.90;10.40;;;11.20;99.90;;;;;;5091155;28;20066;-59
2023/02/18 02:27:11;;;;;;;17.17;11.37;;;11.10;99.90;;;;;;5090931;28;20457;-59
2023/02/18 02:29:45;;;;;;;14.60;9.97;;;11.20;99.90;;;;;;5089583;28;20028;-58
2023/02/18 02:32:29;;;;;;;16.20;9.90;;;11.10;99.90;;;;;;5091650;28;20026;-58
2023/02/18 02:35:04;;;;;;;16.87;11.17;;;11.10;99.90;;;;;;5091065;28;20028;-58
2023/02/18 02:38:01;;;;;;;14.40;10.67;;;11.10;99.90;;;;;;5089548;28;20400;-59
2023/02/18 02:40:55;;;;;;;15.93;10.53;;;11.10;99.90;;;;;;5089921;28;20035;-58
2023/02/18 02:43:36;;;;;;;15.37;10.77;;;11.10;99.90;;;;;;5089427;28;20070;-59
2023/02/18 02:46:21;;;;;;;15.17;10.73;;;11.00;99.90;;;;;;5090816;28;20491;-59
2023/02/18 02:49:08;;;;;;;15.93;10.67;;;11.00;99.90;;;;;;5089296;28;20028;-58
2023/02/18 02:51:49;;;;;;;14.70;10.27;;;11.00;99.90;;;;;;5089543;28;20035;-58
2023/02/18 02:54:21;;;;;;;15.03;10.33;;;11.10;99.90;;;;;;5089385;28;20498;-58
2023/02/18 02:56:47;;;;;;;15.73;9.80;;;11.10;99.90;;;;;;5089410;28;20038;-58
2023/02/18 02:59:21;;;;;;;21.02;9.98;;;11.00;99.90;;;;;;5089385;28;20034;-59
2023/02/18 03:02:13;;;;;;;13.27;8.90;;;11.10;99.90;;;;;;5089449;28;20484;-58
2023/02/18 03:05:03;;;;;;;15.90;10.50;;;11.00;99.90;;;;;;5089114;28;20039;-58
2023/02/18 03:08:03;;;;;;;14.33;9.47;;;11.00;99.90;;;;;;5089050;28;20125;-58
2023/02/18 03:10:42;;;;;;;16.92;10.93;;;11.00;99.90;;;;;;5089349;28;20081;-58
2023/02/18 03:13:23;;;;;;;15.57;10.18;;;11.00;99.90;;;;;;5089279;28;20032;-58
2023/02/18 03:15:52;;;;;;;16.30;9.93;;;10.90;99.90;;;;;;5089339;28;20028;-58
2023/02/18 03:18:32;;;;;;;17.43;11.57;;;10.90;99.90;;;;;;5090292;28;20084;-58
2023/02/18 03:21:10;;;;;;;17.17;11.77;;;10.90;99.90;;;;;;5089080;28;20465;-58
2023/02/18 03:23:58;;;;;;;17.83;11.90;;;10.80;99.90;;;;;;5089088;28;20020;-58
2023/02/18 03:26:27;;;;;;;17.70;11.23;;;10.80;99.90;;;;;;5088960;28;20064;-57
2023/02/18 03:28:57;;;;;;;19.60;12.07;;;10.80;99.90;;;;;;5089091;28;20054;-58
2023/02/18 03:31:26;;;;;;;18.87;12.10;;;10.80;99.90;;;;;;5090346;28;20077;-57
2023/02/18 03:33:58;;;;;;;19.03;12.40;;;10.80;99.90;;;;;;5088914;28;20081;-58
2023/02/18 03:36:24;;;;;;;20.87;12.07;;;10.80;99.90;;;;;;5088941;28;20123;-58
2023/02/18 03:38:56;;;;;;;20.90;12.60;;;10.80;99.90;;;;;;5089023;28;20031;-58
2023/02/18 03:41:22;;;;;;;20.03;12.30;;;10.80;99.90;;;;;;5091757;28;20089;-58
2023/02/18 03:43:54;;;;;;;21.23;12.17;;;10.80;99.90;;;;;;5092841;28;20520;-58
2023/02/18 03:46:20;;;;;;;21.10;12.70;;;10.80;99.90;;;;;;5094190;28;20024;-58
2023/02/18 03:48:45;;;;;;;21.93;13.67;;;10.80;99.90;;;;;;5092881;28;20089;-58
2023/02/18 03:51:11;;;;;;;20.37;12.93;;;10.80;99.90;;;;;;5094234;28;20032;-58
2023/02/18 03:53:37;;;;;;;19.40;12.00;;;10.80;99.90;;;;;;5094026;28;20089;-59
2023/02/18 03:56:04;;;;;;;19.17;12.00;;;10.80;99.90;;;;;;5092837;28;20032;-59
2023/02/18 03:58:29;;;;;;;20.63;12.03;;;10.70;99.90;;;;;;5092409;28;20103;-59
2023/02/18 04:00:55;;;;;;;24.63;13.43;;;10.70;99.90;;;;;;5094076;28;20511;-58
2023/02/18 04:03:21;;;;;;;21.07;12.10;;;10.80;99.90;;;;;;5093729;28;20024;-58
2023/02/18 04:05:47;;;;;;;21.57;12.70;;;10.80;99.90;;;;;;5093896;28;20416;-58
2023/02/18 04:08:12;;;;;;;21.40;12.80;;;10.80;99.90;;;;;;5093591;28;20051;-58
2023/02/18 04:10:38;;;;;;;21.77;12.10;;;10.80;99.90;;;;;;5093842;28;20384;-58
2023/02/18 04:13:04;;;;;;;23.70;12.33;;;10.80;99.90;;;;;;5092533;28;20035;-58
2023/02/18 04:15:30;;;;;;;19.57;10.50;;;10.80;99.90;;;;;;5093725;28;20411;-58
2023/02/18 04:17:55;;;;;;;22.30;10.43;;;10.80;99.90;;;;;;5093812;28;20032;-58
2023/02/18 04:20:21;;;;;;;21.00;10.97;;;10.90;99.90;;;;;;5093664;28;20111;-58
2023/02/18 04:22:48;;;;;;;19.43;10.23;;;10.80;99.90;;;;;;5093711;28;20042;-59
2023/02/18 04:25:13;;;;;;;17.27;9.20;;;10.80;99.90;;;;;;5093768;28;20035;-56
2023/02/18 04:27:39;;;;;;;16.63;9.00;;;10.80;99.90;;;;;;5093113;28;20032;-59
2023/02/18 04:30:05;;;;;;;15.73;8.03;;;10.80;99.90;;;;;;5093597;28;20020;-59
2023/02/18 04:32:32;;;;;;;16.63;8.67;;;10.80;99.90;;;;;;5093646;28;20035;-59
2023/02/18 04:34:58;;;;;;;18.30;8.87;;;10.80;99.90;;;;;;5093506;28;20024;-60
2023/02/18 04:37:23;;;;;;;18.23;8.60;;;10.70;99.90;;;;;;5093098;28;20040;-59
2023/02/18 04:39:49;;;;;;;17.93;8.40;;;10.70;99.90;;;;;;5093411;28;20084;-59
2023/02/18 04:42:15;;;;;;;15.83;7.33;;;10.60;99.90;;;;;;5093252;28;20077;-59
2023/02/18 04:44:40;;;;;;;17.13;9.10;;;10.60;99.90;;;;;;5093085;28;20028;-60
2023/02/18 04:47:06;;;;;;;15.03;7.60;;;10.60;99.90;;;;;;5093065;28;20079;-59
2023/02/18 04:49:33;;;;;;;14.97;7.43;;;10.50;99.90;;;;;;5093201;28;20059;-59
2023/02/18 04:51:59;;;;;;;13.73;7.10;;;10.50;99.90;;;;;;5092785;28;20402;-59
2023/02/18 04:54:25;;;;;;;14.73;6.80;;;10.40;99.90;;;;;;5092910;28;20032;-59
2023/02/18 04:56:50;;;;;;;14.17;6.73;;;10.40;99.90;;;;;;5091904;28;20108;-59
2023/02/18 04:59:16;;;;;;;12.83;7.00;;;10.40;99.90;;;;;;5092837;28;20032;-59
2023/02/18 05:01:42;;;;;;;11.10;6.03;;;10.40;99.90;;;;;;5092938;28;20039;-59
2023/02/18 05:04:07;;;;;;;12.60;7.13;;;10.40;99.90;;;;;;5092559;28;20139;-59
2023/02/18 05:06:33;;;;;;;9.83;5.40;;;10.30;99.90;;;;;;5092558;28;20050;-59
2023/02/18 05:08:59;;;;;;;13.73;7.03;;;10.30;99.90;;;;;;5092468;28;20043;-59
2023/02/18 05:11:25;;;;;;;12.23;7.37;;;10.30;99.90;;;;;;5092679;28;20028;-59
2023/02/18 05:13:50;;;;;;;12.70;7.50;;;10.30;99.90;;;;;;5092758;28;20036;-59
2023/02/18 05:16:16;;;;;;;13.83;7.17;;;10.30;99.90;;;;;;5092608;28;20081;-59
2023/02/18 05:18:42;;;;;;;11.87;7.10;;;10.30;99.90;;;;;;5092422;28;20032;-59
2023/02/18 05:21:07;;;;;;;10.23;5.67;;;10.30;99.90;;;;;;5092631;28;20111;-59
2023/02/18 05:23:33;;;;;;;8.90;5.33;;;10.30;99.90;;;;;;5092319;28;20114;-59
2023/02/18 05:25:59;;;;;;;11.37;5.50;;;10.30;99.90;;;;;;5092367;28;20084;-59
2023/02/18 05:28:25;;;;;;;9.70;5.80;;;10.30;99.90;;;;;;5092312;28;20028;-59
2023/02/18 05:30:50;;;;;;;9.73;5.63;;;10.20;99.90;;;;;;5092587;28;20507;-59
2023/02/18 05:33:16;;;;;;;21.30;13.67;;;10.20;99.90;;;;;;5092358;28;20023;-59
2023/02/18 05:35:42;;;;;;;13.27;8.20;;;10.30;99.90;;;;;;5092034;28;20027;-59
2023/02/18 05:38:08;;;;;;;6.77;4.33;;;10.30;99.90;;;;;;5092502;28;20028;-59
2023/02/18 05:40:34;;;;;;;6.57;3.63;;;10.30;99.90;;;;;;5092132;28;20420;-59
2023/02/18 05:43:00;;;;;;;5.40;3.33;;;10.20;99.90;;;;;;5092236;28;20066;-59
2023/02/18 05:45:25;;;;;;;4.90;3.00;;;10.20;99.90;;;;;;5092121;28;20119;-59
2023/02/18 05:47:51;;;;;;;4.37;2.57;;;10.20;99.90;;;;;;5091698;28;20447;-59
2023/02/18 05:50:17;;;;;;;4.93;2.80;;;10.20;99.90;;;;;;5092029;28;20027;-59
2023/02/18 05:52:43;;;;;;;6.30;2.80;;;10.20;99.90;;;;;;5091999;28;20028;-59
2023/02/18 05:55:08;;;;;;;5.13;3.00;;;10.20;99.90;;;;;;5090380;28;20028;-59
2023/02/18 05:57:34;;;;;;;4.70;2.17;;;10.20;99.90;;;;;;5091651;28;20035;-59
2023/02/18 06:00:00;;;;;;;4.03;2.30;;;10.30;99.90;;;;;;5091841;28;20032;-59
2023/02/18 06:02:26;;;;;;;4.67;2.60;;;10.20;99.90;;;;;;5091280;28;20047;-58
2023/02/18 06:04:51;;;;;;;3.97;2.20;;;10.30;99.90;;;;;;5091284;28;20496;-59
2023/02/18 06:07:19;;;;;;;6.00;2.60;;;10.30;99.90;;;;;;5091289;28;20036;-59
2023/02/18 06:09:45;;;;;;;6.43;2.47;;;10.30;99.90;;;;;;5091506;28;20056;-59
2023/02/18 06:12:11;;;;;;;4.83;2.43;;;10.20;99.90;;;;;;5091859;28;20067;-59
2023/02/18 06:14:40;;;;;;;5.73;2.87;;;10.30;99.90;;;;;;5091522;28;20103;-59
2023/02/18 06:17:08;;;;;;;4.40;2.60;;;10.20;99.90;;;;;;5091747;28;20054;-59
2023/02/18 06:19:33;;;;;;;4.17;2.37;;;10.30;99.90;;;;;;5091576;28;20032;-60
2023/02/18 06:21:59;;;;;;;5.27;2.87;;;10.30;99.90;;;;;;5091476;28;20028;-59
2023/02/18 06:24:25;;;;;;;4.27;2.77;;;10.30;99.90;;;;;;5091127;28;20074;-59
2023/02/18 06:26:51;;;;;;;5.70;3.03;;;10.30;99.90;;;;;;5089772;28;20028;-59
2023/02/18 06:29:16;;;;;;;5.27;2.87;;;10.20;99.90;;;;;;5091262;28;20051;-59
2023/02/18 06:31:42;;;;;;;4.83;2.73;;;10.20;99.90;;;;;;5091242;28;20048;-59
2023/02/18 06:34:08;;;;;;;5.47;3.10;;;10.20;99.90;;;;;;5091124;28;20020;-59
2023/02/18 06:36:34;;;;;;;5.13;3.03;;;10.20;99.90;;;;;;5091066;28;20103;-59
2023/02/18 06:39:02;;;;;;;5.57;3.00;;;10.20;99.90;;;;;;5090971;28;20036;-59
2023/02/18 06:41:28;;;;;;;5.85;3.40;;;10.20;99.90;;;;;;5091214;28;20039;-59
2023/02/18 06:43:53;;;;;;;7.40;3.57;;;10.20;99.90;;;;;;5090955;28;20032;-59
2023/02/18 06:46:19;;;;;;;6.53;3.40;;;10.20;99.90;;;;;;5090771;28;20503;-59
2023/02/18 06:48:45;;;;;;;6.70;3.10;;;10.20;99.90;;;;;;5090911;28;20028;-59
2023/02/18 06:51:11;;;;;;;8.57;3.80;;;10.20;99.90;;;;;;5091122;28;20039;-59
2023/02/18 06:53:36;;;;;;;7.63;3.90;;;10.20;99.90;;;;;;5090619;28;20028;-59
2023/02/18 06:56:02;;;;;;;6.43;3.53;;;10.20;99.90;;;;;;5090996;28;20053;-59
2023/02/18 06:58:28;;;;;;;8.00;3.80;;;10.20;99.90;;;;;;5090684;28;20619;-59
2023/02/18 07:00:54;;;;;;;7.37;3.80;;;10.20;99.90;;;;;;5090869;28;20032;-59
2023/02/18 07:03:19;;;;;;;8.40;3.90;;;10.20;99.90;;;;;;5090783;28;20488;-59
2023/02/18 07:05:45;;;;;;;5.50;3.10;;;10.30;99.90;;;;;;5090778;28;20028;-59
2023/02/18 07:08:11;;;;;;;5.77;3.50;;;10.30;99.90;;;;;;5090411;28;20032;-59
2023/02/18 07:10:37;;;;;;;4.87;3.10;;;10.40;99.90;;;;;;5090705;28;20020;-59
2023/02/18 07:13:03;;;;;;;5.53;2.83;;;10.30;99.90;;;;;;5090721;28;20031;-59
2023/02/18 07:15:29;;;;;;;5.93;3.00;;;10.30;99.90;;;;;;5090238;28;20051;-59
2023/02/18 07:17:55;;;;;;;6.13;3.03;;;10.40;99.90;;;;;;5090862;28;20070;-59
2023/02/18 07:20:21;;;;;;;15.77;8.90;;;10.40;99.90;;;;;;5090644;28;20059;-59
2023/02/18 07:22:47;;;;;;;6.50;3.40;;;10.40;99.90;;;;;;5090649;28;20306;-59
2023/02/18 07:25:13;;;;;;;7.50;4.77;;;10.50;99.90;;;;;;5090513;28;20326;-59
2023/02/18 07:27:39;;;;;;;11.00;6.57;;;10.50;99.90;;;;;;5090269;28;20392;-59
2023/02/18 07:30:06;;;;;;;3.60;2.20;;;10.50;99.90;;;;;;5090459;28;20028;-59
2023/02/18 07:32:31;;;;;;;4.97;2.00;;;10.50;99.90;;;;;;5090651;28;20434;-59
2023/02/18 07:34:57;;;;;;;3.07;1.80;;;10.50;99.90;;;;;;5090355;28;20020;-59
2023/02/18 07:37:23;;;;;;;3.77;1.90;;;10.50;99.90;;;;;;5090295;28;20067;-59
2023/02/18 07:39:48;;;;;;;2.70;1.67;;;10.50;99.90;;;;;;5090457;28;20031;-59
2023/02/18 07:42:14;;;;;;;3.13;1.60;;;10.50;99.90;;;;;;5090489;28;20036;-59
2023/02/18 07:44:40;;;;;;;4.23;1.50;;;10.60;99.90;;;;;;5090300;28;20671;-59
2023/02/18 07:47:09;;;;;;;2.60;1.50;;;10.60;99.90;;;;;;5090155;28;20032;-59
2023/02/18 07:49:35;;;;;;;4.43;1.60;;;10.60;99.90;;;;;;5090773;28;20107;-59
2023/02/18 07:52:01;;;;;;;4.23;2.10;;;10.70;99.90;;;;;;5090356;28;20107;-59
2023/02/18 07:54:26;;;;;;;4.37;2.07;;;10.70;99.90;;;;;;5090217;28;20051;-59
2023/02/18 07:56:53;;;;;;;3.87;2.00;;;10.60;99.90;;;;;;5090110;28;20032;-59
2023/02/18 07:59:19;;;;;;;2.47;1.73;;;10.50;99.90;;;;;;5090207;28;20497;-59
2023/02/18 08:01:45;;;;;;;3.97;2.20;;;10.50;99.90;;;;;;5088968;28;20035;-59
2023/02/18 08:04:11;;;;;;;4.57;2.33;;;10.40;99.90;;;;;;5090156;28;20043;-59
2023/02/18 08:06:47;;;;;;;4.17;2.30;;;10.30;99.90;;;;;;5089904;28;20122;-59
2023/02/18 08:09:14;;;;;;;4.07;2.37;;;10.20;99.90;;;;;;5090241;28;20480;-59
2023/02/18 08:11:40;;;;;;;7.00;2.60;;;10.20;99.90;;;;;;5090182;28;20058;-59
2023/02/18 08:14:06;;;;;;;4.07;2.00;;;10.10;99.90;;;;;;5090211;28;20059;-59
2023/02/18 08:16:33;;;;;;;3.27;2.07;;;10.10;99.90;;;;;;5090620;28;20217;-59
2023/02/18 08:19:00;;;;;;;3.60;1.80;;;10.10;99.90;;;;;;5090380;28;20036;-59
2023/02/18 08:21:26;;;;;;;5.00;1.33;;;10.10;99.90;;;;;;5090574;28;20054;-59
2023/02/18 08:23:53;;;;;;;3.77;1.80;;;10.20;99.90;;;;;;5090256;28;20028;-59
2023/02/18 08:26:19;;;;;;;2.60;1.60;;;10.10;99.90;;;;;;5090986;28;20027;-59
2023/02/18 08:28:46;;;;;;;4.80;1.90;;;10.20;99.90;;;;;;5092673;28;20078;-59
2023/02/18 08:31:31;;;;;;;4.20;2.20;;;10.20;99.90;;;;;;5093990;28;20141;-59
2023/02/18 08:33:59;;;;;;;5.47;2.43;;;10.30;99.90;;;;;;5093682;28;20333;-59
2023/02/18 08:36:26;;;;;;;4.20;2.20;;;10.20;99.90;;;;;;5093772;28;20441;-59
2023/02/18 08:38:52;;;;;;;5.10;2.20;;;10.20;99.90;;;;;;5093683;28;20069;-59
2023/02/18 08:41:18;;;;;;;4.17;2.20;;;10.20;99.90;;;;;;5093505;28;20118;-59
2023/02/18 08:43:44;;;;;;;10.73;3.10;;;10.20;99.90;;;;;;5093240;28;20117;-58
2023/02/18 08:46:10;;;;;;;7.17;2.63;;;10.10;99.90;;;;;;5093263;28;20072;-59
2023/02/18 08:48:36;;;;;;;7.23;2.40;;;10.10;99.90;;;;;;5093064;28;20077;-59
2023/02/18 08:51:17;;;;;;;5.43;2.60;;;10.10;99.90;;;;;;5093337;28;20024;-59
2023/02/18 08:53:44;;;;;;;9.77;3.13;;;10.10;99.90;;;;;;5092922;28;20022;-59
2023/02/18 08:56:10;;;;;;;8.53;2.97;;;10.10;99.90;;;;;;5093127;28;20027;-59
2023/02/18 08:58:36;;;;;;;11.50;2.70;;;10.10;99.90;;;;;;5092748;28;20384;-59
2023/02/18 09:01:07;;;;;;;9.50;2.73;;;10.10;99.90;;;;;;5093267;28;20028;-59
2023/02/18 09:03:33;;;;;;;13.43;2.90;;;10.10;99.90;;;;;;5093738;28;20034;-59
2023/02/18 09:06:00;;;;;;;10.97;2.53;;;10.10;99.90;;;;;;5093515;28;20062;-59
2023/02/18 09:08:27;;;;;;;9.67;2.60;;;10.10;99.90;;;;;;5094757;28;20451;-59
2023/02/18 09:11:01;;;;;;;8.27;2.27;;;10.10;99.90;;;;;;5093734;28;20016;-59
2023/02/18 09:13:27;;;;;;;10.27;2.43;;;10.10;99.90;;;;;;5092597;28;20026;-59
2023/02/18 09:16:01;;;;;;;11.10;2.10;;;10.10;99.90;;;;;;5092798;28;20028;-59
2023/02/18 09:18:27;;;;;;;7.03;2.30;;;10.10;99.90;;;;;;5092534;28;20440;-59
2023/02/18 09:20:56;;;;;;;10.10;2.67;;;10.10;99.90;;;;;;5092633;28;20067;-59
2023/02/18 09:23:21;;;;;;;12.23;2.85;;;10.10;99.90;;;;;;5092258;28;20028;-59
2023/02/18 09:25:47;;;;;;;10.03;2.73;;;10.10;99.90;;;;;;5092450;28;20438;-59
2023/02/18 09:28:13;;;;;;;10.53;2.47;;;10.00;99.90;;;;;;5092175;28;20061;-59
2023/02/18 09:30:39;;;;;;;13.80;3.10;;;10.10;99.90;;;;;;5092407;28;20047;-59
2023/02/18 09:33:05;;;;;;;9.63;2.90;;;10.10;99.90;;;;;;5092566;28;20412;-59
2023/02/18 09:35:31;;;;;;;11.00;2.83;;;10.10;99.90;;;;;;5092150;28;20029;-59
2023/02/18 09:37:56;;;;;;;12.37;2.67;;;10.10;99.90;;;;;;5091972;28;20438;-59
2023/02/18 09:40:29;;;;;;;15.13;2.83;;;10.10;99.90;;;;;;5092204;28;20028;-59
2023/02/18 09:42:56;;;;;;;10.47;2.30;;;10.10;99.90;;;;;;5092134;28;20032;-59
2023/02/18 09:45:22;;;;;;;9.07;2.50;;;10.20;99.90;;;;;;5092088;28;20210;-59
2023/02/18 09:47:50;;;;;;;7.70;2.67;;;10.20;99.90;;;;;;5091783;28;20401;-59
2023/02/18 09:50:22;;;;;;;10.03;2.20;;;10.20;99.90;;;;;;5091959;28;20495;-59
2023/02/18 09:52:48;;;;;;;13.57;2.87;;;10.20;99.90;;;;;;5092213;28;20343;-58
2023/02/18 09:55:22;;;;;;;11.00;2.80;;;10.30;99.90;;;;;;5092170;28;20020;-59
2023/02/18 09:57:51;;;;;;;13.70;2.60;;;10.30;99.90;;;;;;5091498;28;20085;-59
2023/02/18 10:00:29;;;;;;;12.95;2.63;;;10.30;99.90;;;;;;5091891;28;20032;-59
2023/02/18 10:02:58;;;;;;;14.13;2.70;;;10.30;99.90;;;;;;5091855;28;20047;-59
2023/02/18 10:05:26;;;;;;;10.40;2.70;;;10.40;99.90;;;;;;5091586;28;20086;-59
2023/02/18 10:07:57;;;;;;;13.47;2.73;;;10.40;99.90;;;;;;5091251;28;20511;-58
2023/02/18 10:10:38;;;;;;;12.63;2.77;;;10.40;99.90;;;;;;5091593;28;20028;-58
2023/02/18 10:13:06;;;;;;;13.33;2.80;;;10.50;99.90;;;;;;5091589;28;20059;-58
2023/02/18 10:15:32;;;;;;;12.87;3.07;;;10.40;99.90;;;;;;5091122;28;20059;-59
2023/02/18 10:17:59;;;;;;;10.00;3.20;;;10.40;99.90;;;;;;5091207;28;20036;-58
2023/02/18 10:20:28;;;;;;;9.63;2.73;;;10.40;99.90;;;;;;5091495;28;20077;-58
2023/02/18 10:22:58;;;;;;;11.77;2.77;;;10.40;99.90;;;;;;5091343;28;20036;-58
2023/02/18 10:25:25;;;;;;;9.83;2.80;;;10.40;99.90;;;;;;5091170;28;20035;-58
2023/02/18 10:27:52;;;;;;;12.43;2.97;;;10.30;99.90;;;;;;5090875;28;20138;-58
2023/02/18 10:30:34;;;;;;;14.47;3.10;;;10.20;99.90;;;;;;5091155;28;20111;-58
2023/02/18 10:33:29;;;;;;;15.07;2.93;;;10.10;99.90;;;;;;5091401;28;20111;-58
2023/02/18 10:36:20;;;;;;;18.33;3.60;;;10.10;99.90;;;;;;5091496;28;20033;-58
2023/02/18 10:39:08;;;;;;;12.13;3.20;;;10.10;99.90;;;;;;5091128;28;20385;-58
2023/02/18 10:42:04;;;;;;;17.60;3.47;;;10.00;99.90;;;;;;5091076;28;20123;-58
2023/02/18 10:44:41;;;;;;;16.07;3.13;;;9.90;99.90;;;;;;5090846;28;20121;-58
2023/02/18 10:47:25;;;;;;;14.50;3.03;;;9.90;99.90;;;;;;5090729;28;20068;-58
2023/02/18 10:50:23;;;;;;;19.03;3.67;;;9.90;99.90;;;;;;5090520;28;20089;-58
2023/02/18 10:52:51;;;;;;;16.37;3.00;;;9.90;99.90;;;;;;5090908;28;20480;-58
2023/02/18 10:55:17;;;;;;;19.37;3.70;;;9.90;99.90;;;;;;5090632;28;20027;-59
2023/02/18 10:57:49;;;;;;;14.23;3.53;;;9.70;99.90;;;;;;5090658;28;20465;-58
2023/02/18 11:00:26;;;;;;;11.77;3.77;;;9.80;99.90;;;;;;5090841;28;20048;-59
2023/02/18 11:03:16;;;;;;;18.23;4.57;;;9.60;99.90;;;;;;5090902;28;20438;-58
2023/02/18 11:05:43;;;;;;;17.73;4.60;;;9.60;99.90;;;;;;5090554;28;20046;-58
2023/02/18 11:08:16;;;;;;;13.13;4.07;;;9.60;99.90;;;;;;5090358;28;20081;-58
2023/02/18 11:10:44;;;;;;;12.27;4.10;;;9.60;99.90;;;;;;5090647;28;20063;-58
2023/02/18 11:13:13;;;;;;;13.47;4.30;;;9.50;99.90;;;;;;5090763;28;20109;-58
2023/02/18 11:15:59;;;;;;;14.57;4.23;;;9.50;99.90;;;;;;5090442;28;20024;-59
2023/02/18 11:18:24;;;;;;;11.57;4.00;;;9.50;99.90;;;;;;5090394;28;20053;-58
2023/02/18 11:20:56;;;;;;;13.00;4.03;;;9.50;99.90;;;;;;5090384;28;20469;-58
2023/02/18 11:23:22;;;;;;;12.60;3.53;;;9.50;99.90;;;;;;5090435;28;20035;-59
2023/02/18 11:26:05;;;;;;;15.10;3.83;;;9.50;99.90;;;;;;5090510;28;20082;-59
2023/02/18 11:28:38;;;;;;;14.13;3.93;;;9.60;99.90;;;;;;5090347;28;20310;-59
2023/02/18 11:31:04;;;;;;;17.37;4.90;;;9.60;99.90;;;;;;5090638;28;20036;-59
2023/02/18 11:33:36;;;;;;;12.67;3.77;;;9.60;99.90;;;;;;5090460;28;20021;-59
2023/02/18 11:36:18;;;;;;;14.40;4.40;;;9.60;99.90;;;;;;5090425;28;20052;-59
2023/02/18 11:38:54;;;;;;;16.53;5.10;;;9.60;99.90;;;;;;5090148;28;20106;-59
2023/02/18 11:41:30;;;;;;;13.20;4.27;;;9.60;99.90;;;;;;5090395;28;20093;-59
2023/02/18 11:43:57;;;;;;;12.70;4.63;;;9.60;99.90;;;;;;5090158;28;20036;-59
2023/02/18 11:46:25;;;;;;;15.40;5.10;;;9.70;99.90;;;;;;5090138;28;20381;-59
2023/02/18 11:48:51;;;;;;;13.27;4.10;;;9.70;99.90;;;;;;5090190;28;20032;-59
2023/02/18 11:51:19;;;;;;;13.13;4.60;;;9.60;99.90;;;;;;5090309;28;20786;-59
2023/02/18 11:53:58;;;;;;;14.53;4.40;;;9.60;99.90;;;;;;5089948;28;20028;-60
2023/02/18 11:56:25;;;;;;;12.93;3.90;;;9.60;99.90;;;;;;5090255;28;20036;-58
2023/02/18 11:58:51;;;;;;;13.90;5.00;;;9.60;99.90;;;;;;5090276;28;20036;-59
2023/02/18 12:01:49;;;;;;;9.57;4.17;;;9.60;99.90;;;;;;5091120;28;20035;-59
2023/02/18 12:04:18;;;;;;;11.50;4.10;;;9.70;99.90;;;;;;5093944;28;20032;-59
2023/02/18 12:06:55;;;;;;;12.32;4.75;;;9.70;99.90;;;;;;5093779;28;20063;-59
2023/02/18 12:09:35;;;;;;;10.47;4.43;;;9.80;99.90;;;;;;5094195;28;20055;-59
2023/02/18 12:12:29;;;;;;;10.80;4.57;;;9.70;99.90;;;;;;5093920;28;20535;-59
2023/02/18 12:14:57;;;;;;;10.07;4.20;;;9.70;99.90;;;;;;5090976;28;20067;-59
2023/02/18 12:17:35;;;;;;;11.53;4.47;;;9.70;99.90;;;;;;5093634;28;20472;-59
2023/02/18 12:20:19;;;;;;;12.30;4.30;;;9.70;99.90;;;;;;5093730;28;20024;-59
2023/02/18 12:22:47;;;;;;;12.27;5.07;;;9.70;99.90;;;;;;5093652;28;20047;-59
2023/02/18 12:25:22;;;;;;;12.87;5.43;;;9.70;99.90;;;;;;5093471;28;20181;-59
2023/02/18 12:28:15;;;;;;;8.23;4.50;;;9.70;99.90;;;;;;5093487;28;20020;-59
2023/02/18 12:30:57;;;;;;;10.87;4.83;;;9.80;99.90;;;;;;5093521;28;20035;-59
2023/02/18 12:34:00;;;;;;;11.47;4.70;;;9.80;99.90;;;;;;5093437;28;20028;-59
2023/02/18 12:36:50;;;;;;;10.57;4.60;;;9.80;99.90;;;;;;5093223;28;20476;-59
2023/02/18 12:39:22;;;;;;;9.33;4.70;;;9.80;99.90;;;;;;5092008;28;20232;-60
2023/02/18 12:41:53;;;;;;;9.63;4.20;;;9.80;99.90;;;;;;5093298;28;20043;-59
2023/02/18 12:44:32;;;;;;;8.30;4.00;;;9.90;99.90;;;;;;5093128;28;20036;-59
2023/02/18 12:47:29;;;;;;;9.95;4.22;;;9.90;99.90;;;;;;5092923;28;20020;-59
2023/02/18 12:50:11;;;;;;;8.27;5.00;;;9.90;99.90;;;;;;5093271;28;20659;-59
2023/02/18 12:53:10;;;;;;;14.77;5.40;;;9.80;99.90;;;;;;5093226;28;20039;-59